Burnstad, North Dakota
Current Conditions -  °F | °C
As of 10:15 PM on Tuesday 27 Jan 2015 (Local Time) from K7L2 Reporting Station
Clear Clear  
Wind Chill: 29°   Ceiling: Unl
Heat Index: 36°   Visibility: 10mi
Dew Point: 36°   Wind: 8mph
Humidity: 100%   Direction: 130°SE
Pressure: 29.8"   Gusts: NA
Location:  46.2334°N, 99.6522°W
Report Text: K7L2 280415Z AUTO 13007KT 10SM CLR 02/02 A2980 RMK AO2
Loading
Personal Weather Stations






























Interactive Weather Map New forecast layout! Learn more

10-Day Weather Forecast

Advertisements
Track Severe Weather on mobile